sensor_id;sensor_type;location;lat;lon;timestamp;pressure;altitude;pressure_sealevel;temperature;humidity
41947;BME280;27638;42.184;24.848;2023-05-07T00:00:05;100136.75;;;15.54;98.56
41947;BME280;27638;42.184;24.848;2023-05-07T00:02:33;100134.72;;;15.42;99.56
41947;BME280;27638;42.184;24.848;2023-05-07T00:04:59;100139.22;;;15.41;99.78
41947;BME280;27638;42.184;24.848;2023-05-07T00:07:24;100136.56;;;15.41;100.00
41947;BME280;27638;42.184;24.848;2023-05-07T00:09:50;100136.09;;;15.38;100.00
41947;BME280;27638;42.184;24.848;2023-05-07T00:12:15;100132.97;;;15.34;100.00
41947;BME280;27638;42.184;24.848;2023-05-07T00:14:41;100128.75;;;15.40;97.59
41947;BME280;27638;42.184;24.848;2023-05-07T00:17:07;100134.44;;;15.51;96.51
41947;BME280;27638;42.184;24.848;2023-05-07T00:19:32;100135.91;;;15.54;95.44
41947;BME280;27638;42.184;24.848;2023-05-07T00:21:57;100141.44;;;15.52;93.93
41947;BME280;27638;42.184;24.848;2023-05-07T00:24:23;100136.66;;;15.48;91.83
41947;BME280;27638;42.184;24.848;2023-05-07T00:26:49;100135.66;;;15.49;93.72
41947;BME280;27638;42.184;24.848;2023-05-07T00:29:15;100130.59;;;15.54;93.21
41947;BME280;27638;42.184;24.848;2023-05-07T00:31:40;100134.44;;;15.51;92.45
41947;BME280;27638;42.184;24.848;2023-05-07T00:34:06;100130.69;;;15.46;92.50
41947;BME280;27638;42.184;24.848;2023-05-07T00:36:31;100121.56;;;15.25;93.32
41947;BME280;27638;42.184;24.848;2023-05-07T00:38:59;100119.97;;;15.01;94.71
41947;BME280;27638;42.184;24.848;2023-05-07T00:41:25;100125.03;;;15.11;94.93
41947;BME280;27638;42.184;24.848;2023-05-07T00:43:51;100115.03;;;15.13;93.83
41947;BME280;27638;42.184;24.848;2023-05-07T00:46:20;100126.06;;;15.25;93.13
41947;BME280;27638;42.184;24.848;2023-05-07T00:48:46;100120.19;;;15.29;92.33
41947;BME280;27638;42.184;24.848;2023-05-07T00:51:12;100123.78;;;15.37;90.71
41947;BME280;27638;42.184;24.848;2023-05-07T00:53:38;100123.41;;;15.40;90.05
41947;BME280;27638;42.184;24.848;2023-05-07T00:56:04;100125.53;;;15.44;89.82
41947;BME280;27638;42.184;24.848;2023-05-07T00:58:32;100130.13;;;15.50;89.19
41947;BME280;27638;42.184;24.848;2023-05-07T01:00:57;100136.75;;;15.54;87.83
41947;BME280;27638;42.184;24.848;2023-05-07T01:03:23;100136.84;;;15.46;87.52
41947;BME280;27638;42.184;24.848;2023-05-07T01:05:50;100137.22;;;15.43;87.86
41947;BME280;27638;42.184;24.848;2023-05-07T01:08:16;100136.47;;;15.34;88.88
41947;BME280;27638;42.184;24.848;2023-05-07T01:10:42;100134.25;;;15.38;89.05
41947;BME280;27638;42.184;24.848;2023-05-07T01:13:12;100145.50;;;15.48;88.89
41947;BME280;27638;42.184;24.848;2023-05-07T01:15:38;100137.25;;;15.58;87.40
41947;BME280;27638;42.184;24.848;2023-05-07T01:18:03;100141.22;;;15.62;86.78
41947;BME280;27638;42.184;24.848;2023-05-07T01:20:30;100134.72;;;15.56;88.21
41947;BME280;27638;42.184;24.848;2023-05-07T01:22:56;100130.88;;;15.59;87.06
41947;BME280;27638;42.184;24.848;2023-05-07T01:25:23;100100.59;;;15.37;86.72
41947;BME280;27638;42.184;24.848;2023-05-07T01:27:49;100121.75;;;15.53;87.39
41947;BME280;27638;42.184;24.848;2023-05-07T01:30:15;100121.03;;;15.59;88.15
41947;BME280;27638;42.184;24.848;2023-05-07T01:32:58;100123.56;;;15.61;87.27
41947;BME280;27638;42.184;24.848;2023-05-07T01:35:29;100131.13;;;15.49;87.03
41947;BME280;27638;42.184;24.848;2023-05-07T01:37:56;100127.72;;;15.55;88.06
41947;BME280;27638;42.184;24.848;2023-05-07T01:40:22;100125.22;;;15.62;88.19
41947;BME280;27638;42.184;24.848;2023-05-07T01:42:48;100123.91;;;15.73;87.83
41947;BME280;27638;42.184;24.848;2023-05-07T01:45:13;100133.75;;;15.72;85.62
41947;BME280;27638;42.184;24.848;2023-05-07T01:47:39;100131.38;;;15.77;85.04
41947;BME280;27638;42.184;24.848;2023-05-07T01:50:06;100122.72;;;15.75;83.78
41947;BME280;27638;42.184;24.848;2023-05-07T01:52:34;100124.00;;;15.64;83.74
41947;BME280;27638;42.184;24.848;2023-05-07T01:54:59;100127.22;;;15.60;83.64
41947;BME280;27638;42.184;24.848;2023-05-07T01:57:25;100123.41;;;15.54;83.06
41947;BME280;27638;42.184;24.848;2023-05-07T01:59:50;100125.34;;;15.46;83.57
41947;BME280;27638;42.184;24.848;2023-05-07T02:02:15;100117.06;;;15.41;83.96
41947;BME280;27638;42.184;24.848;2023-05-07T02:04:41;100122.41;;;15.41;84.01
41947;BME280;27638;42.184;24.848;2023-05-07T02:07:06;100107.31;;;15.33;83.93
41947;BME280;27638;42.184;24.848;2023-05-07T02:09:32;100107.03;;;15.43;83.60
41947;BME280;27638;42.184;24.848;2023-05-07T02:11:57;100103.44;;;15.50;83.01
41947;BME280;27638;42.184;24.848;2023-05-07T02:14:22;100109.53;;;15.59;82.51
41947;BME280;27638;42.184;24.848;2023-05-07T02:16:48;100102.66;;;15.64;83.48
41947;BME280;27638;42.184;24.848;2023-05-07T02:19:13;100104.53;;;15.41;84.20
41947;BME280;27638;42.184;24.848;2023-05-07T02:21:39;100105.09;;;15.22;85.58
41947;BME280;27638;42.184;24.848;2023-05-07T02:24:04;100105.84;;;15.30;84.80
41947;BME280;27638;42.184;24.848;2023-05-07T02:26:30;100097.66;;;15.32;84.57
41947;BME280;27638;42.184;24.848;2023-05-07T02:28:55;100101.41;;;15.38;83.44
41947;BME280;27638;42.184;24.848;2023-05-07T02:31:21;100100.59;;;15.37;83.11
41947;BME280;27638;42.184;24.848;2023-05-07T02:33:46;100102.69;;;15.42;83.10
41947;BME280;27638;42.184;24.848;2023-05-07T02:36:12;100087.34;;;15.29;83.36
41947;BME280;27638;42.184;24.848;2023-05-07T02:38:38;100101.31;;;15.31;82.96
41947;BME280;27638;42.184;24.848;2023-05-07T02:41:04;100098.00;;;15.29;82.94
41947;BME280;27638;42.184;24.848;2023-05-07T02:43:29;100101.59;;;15.21;83.43
41947;BME280;27638;42.184;24.848;2023-05-07T02:46:04;100098.75;;;15.23;83.66
41947;BME280;27638;42.184;24.848;2023-05-07T02:48:30;100095.53;;;15.13;84.58
41947;BME280;27638;42.184;24.848;2023-05-07T02:50:56;100098.75;;;15.08;85.19
41947;BME280;27638;42.184;24.848;2023-05-07T02:53:22;100101.78;;;15.05;86.06
41947;BME280;27638;42.184;24.848;2023-05-07T02:55:47;100102.47;;;14.84;87.31
41947;BME280;27638;42.184;24.848;2023-05-07T02:58:12;100099.69;;;14.78;89.07
41947;BME280;27638;42.184;24.848;2023-05-07T03:00:38;100101.16;;;14.65;89.82
41947;BME280;27638;42.184;24.848;2023-05-07T03:03:03;100065.50;;;14.44;91.37
41947;BME280;27638;42.184;24.848;2023-05-07T03:05:29;100097.09;;;14.69;91.85
41947;BME280;27638;42.184;24.848;2023-05-07T03:07:54;100099.94;;;14.68;92.67
41947;BME280;27638;42.184;24.848;2023-05-07T03:10:19;100095.19;;;14.78;92.38
41947;BME280;27638;42.184;24.848;2023-05-07T03:12:45;100103.41;;;14.91;91.14
41947;BME280;27638;42.184;24.848;2023-05-07T03:15:11;100097.63;;;15.02;90.69
41947;BME280;27638;42.184;24.848;2023-05-07T03:17:39;100099.84;;;15.14;89.84
41947;BME280;27638;42.184;24.848;2023-05-07T03:20:05;100093.31;;;15.16;89.10
41947;BME280;27638;42.184;24.848;2023-05-07T03:22:31;100095.25;;;15.22;88.50
41947;BME280;27638;42.184;24.848;2023-05-07T03:24:56;100099.66;;;15.30;87.37
41947;BME280;27638;42.184;24.848;2023-05-07T03:27:22;100098.09;;;15.36;87.34
41947;BME280;27638;42.184;24.848;2023-05-07T03:29:47;100101.41;;;15.23;87.89
41947;BME280;27638;42.184;24.848;2023-05-07T03:32:13;100098.47;;;15.18;88.51
41947;BME280;27638;42.184;24.848;2023-05-07T03:34:38;100106.63;;;15.01;88.54
41947;BME280;27638;42.184;24.848;2023-05-07T03:37:04;100104.41;;;14.90;89.59
41947;BME280;27638;42.184;24.848;2023-05-07T03:39:29;100088.59;;;14.89;88.80
41947;BME280;27638;42.184;24.848;2023-05-07T03:41:55;100099.22;;;14.51;91.55
41947;BME280;27638;42.184;24.848;2023-05-07T03:44:21;100103.94;;;14.41;93.21
41947;BME280;27638;42.184;24.848;2023-05-07T03:46:46;100102.91;;;14.50;93.06
41947;BME280;27638;42.184;24.848;2023-05-07T03:49:12;100103.47;;;14.83;91.72
41947;BME280;27638;42.184;24.848;2023-05-07T03:51:37;100102.38;;;14.78;91.40
41947;BME280;27638;42.184;24.848;2023-05-07T03:54:03;100100.19;;;14.96;90.87
41947;BME280;27638;42.184;24.848;2023-05-07T03:56:28;100108.78;;;15.21;89.21
41947;BME280;27638;42.184;24.848;2023-05-07T03:58:54;100105.09;;;15.37;88.56
41947;BME280;27638;42.184;24.848;2023-05-07T04:01:20;100113.19;;;15.43;88.20
41947;BME280;27638;42.184;24.848;2023-05-07T04:03:45;100116.69;;;15.44;88.20
41947;BME280;27638;42.184;24.848;2023-05-07T04:06:11;100115.59;;;15.38;88.95
41947;BME280;27638;42.184;24.848;2023-05-07T04:08:37;100109.88;;;15.56;88.28
41947;BME280;27638;42.184;24.848;2023-05-07T04:11:03;100117.47;;;15.67;87.41
41947;BME280;27638;42.184;24.848;2023-05-07T04:13:29;100114.88;;;15.74;86.41
41947;BME280;27638;42.184;24.848;2023-05-07T04:15:55;100120.41;;;15.72;87.73
41947;BME280;27638;42.184;24.848;2023-05-07T04:18:20;100119.59;;;15.72;87.95
41947;BME280;27638;42.184;24.848;2023-05-07T04:20:47;100119.59;;;15.72;87.44
41947;BME280;27638;42.184;24.848;2023-05-07T04:23:13;100116.09;;;15.71;88.36
41947;BME280;27638;42.184;24.848;2023-05-07T04:25:38;100111.75;;;15.70;89.21
41947;BME280;27638;42.184;24.848;2023-05-07T04:28:04;100122.16;;;15.80;90.33
41947;BME280;27638;42.184;24.848;2023-05-07T04:30:30;100117.34;;;15.90;90.44
41947;BME280;27638;42.184;24.848;2023-05-07T04:32:55;100118.06;;;15.99;90.51
41947;BME280;27638;42.184;24.848;2023-05-07T04:35:21;100126.78;;;16.07;90.69
41947;BME280;27638;42.184;24.848;2023-05-07T04:37:47;100115.03;;;16.23;91.27
41947;BME280;27638;42.184;24.848;2023-05-07T04:40:13;100117.47;;;16.39;89.65
41947;BME280;27638;42.184;24.848;2023-05-07T04:42:38;100107.16;;;16.57;88.94
41947;BME280;27638;42.184;24.848;2023-05-07T04:45:04;100118.56;;;16.87;87.49
41947;BME280;27638;42.184;24.848;2023-05-07T04:47:30;100113.38;;;17.07;86.37
41947;BME280;27638;42.184;24.848;2023-05-07T04:49:55;100117.66;;;17.30;85.36
41947;BME280;27638;42.184;24.848;2023-05-07T04:52:21;100121.88;;;17.52;84.16
41947;BME280;27638;42.184;24.848;2023-05-07T04:54:46;100116.31;;;17.47;84.19
41947;BME280;27638;42.184;24.848;2023-05-07T04:57:11;100123.56;;;17.60;84.18
41947;BME280;27638;42.184;24.848;2023-05-07T04:59:37;100128.09;;;17.59;84.29
41947;BME280;27638;42.184;24.848;2023-05-07T05:02:03;100132.84;;;17.57;83.04
41947;BME280;27638;42.184;24.848;2023-05-07T05:04:29;100132.22;;;17.55;83.54
41947;BME280;27638;42.184;24.848;2023-05-07T05:06:55;100127.31;;;17.65;83.79
41947;BME280;27638;42.184;24.848;2023-05-07T05:09:20;100129.28;;;17.78;82.45
41947;BME280;27638;42.184;24.848;2023-05-07T05:11:46;100128.13;;;18.00;81.92
41947;BME280;27638;42.184;24.848;2023-05-07T05:14:11;100124.28;;;18.16;80.65
41947;BME280;27638;42.184;24.848;2023-05-07T05:16:37;100132.13;;;18.24;78.86
41947;BME280;27638;42.184;24.848;2023-05-07T05:19:02;100129.47;;;18.37;79.86
41947;BME280;27638;42.184;24.848;2023-05-07T05:21:28;100134.88;;;18.50;79.14
41947;BME280;27638;42.184;24.848;2023-05-07T05:23:53;100127.31;;;18.74;79.11
41947;BME280;27638;42.184;24.848;2023-05-07T05:26:19;100137.22;;;18.73;77.48
41947;BME280;27638;42.184;24.848;2023-05-07T05:28:46;100141.97;;;18.91;75.88
41947;BME280;27638;42.184;24.848;2023-05-07T05:31:12;100141.16;;;18.91;75.43
41947;BME280;27638;42.184;24.848;2023-05-07T05:33:37;100152.28;;;19.07;74.61
41947;BME280;27638;42.184;24.848;2023-05-07T05:36:03;100140.72;;;19.27;74.13
41947;BME280;27638;42.184;24.848;2023-05-07T05:38:29;100149.16;;;19.43;73.08
41947;BME280;27638;42.184;24.848;2023-05-07T05:40:54;100152.03;;;19.49;70.24
41947;BME280;27638;42.184;24.848;2023-05-07T05:43:20;100153.25;;;19.66;71.07
41947;BME280;27638;42.184;24.848;2023-05-07T05:45:45;100160.25;;;19.87;69.63
41947;BME280;27638;42.184;24.848;2023-05-07T05:48:11;100158.09;;;20.08;69.51
41947;BME280;27638;42.184;24.848;2023-05-07T05:50:36;100153.53;;;20.09;67.02
41947;BME280;27638;42.184;24.848;2023-05-07T05:53:02;100164.00;;;20.24;65.96
41947;BME280;27638;42.184;24.848;2023-05-07T05:55:27;100161.03;;;20.45;65.23
41947;BME280;27638;42.184;24.848;2023-05-07T05:57:53;100161.88;;;20.39;63.96
41947;BME280;27638;42.184;24.848;2023-05-07T06:00:18;100164.94;;;20.49;63.57
41947;BME280;27638;42.184;24.848;2023-05-07T06:02:47;100159.63;;;20.67;60.64
41947;BME280;27638;42.184;24.848;2023-05-07T06:05:12;100154.03;;;20.69;61.08
41947;BME280;27638;42.184;24.848;2023-05-07T06:07:38;100161.13;;;20.95;60.12
41947;BME280;27638;42.184;24.848;2023-05-07T06:10:04;100157.66;;;21.13;59.07
41947;BME280;27638;42.184;24.848;2023-05-07T06:12:29;100162.06;;;21.07;57.67
41947;BME280;27638;42.184;24.848;2023-05-07T06:14:55;100165.06;;;20.92;56.93
41947;BME280;27638;42.184;24.848;2023-05-07T06:17:20;100155.56;;;21.15;56.82
41947;BME280;27638;42.184;24.848;2023-05-07T06:19:45;100162.13;;;21.25;56.89
41947;BME280;27638;42.184;24.848;2023-05-07T06:22:11;100164.69;;;21.14;56.76
41947;BME280;27638;42.184;24.848;2023-05-07T06:24:36;100163.25;;;20.86;58.75
41947;BME280;27638;42.184;24.848;2023-05-07T06:27:02;100164.34;;;21.03;57.65
41947;BME280;27638;42.184;24.848;2023-05-07T06:29:28;100156.06;;;21.30;56.43
41947;BME280;27638;42.184;24.848;2023-05-07T06:31:56;100156.34;;;21.65;54.03
41947;BME280;27638;42.184;24.848;2023-05-07T06:34:22;100155.91;;;21.86;53.20
41947;BME280;27638;42.184;24.848;2023-05-07T06:36:47;100149.69;;;22.04;52.79
41947;BME280;27638;42.184;24.848;2023-05-07T06:39:12;100146.38;;;22.20;52.41
41947;BME280;27638;42.184;24.848;2023-05-07T06:41:38;100153.84;;;22.37;52.25
41947;BME280;27638;42.184;24.848;2023-05-07T06:44:04;100153.66;;;22.20;52.59
41947;BME280;27638;42.184;24.848;2023-05-07T06:46:30;100154.19;;;22.40;53.54
41947;BME280;27638;42.184;24.848;2023-05-07T06:48:55;100144.28;;;22.22;53.62
41947;BME280;27638;42.184;24.848;2023-05-07T06:51:22;100151.22;;;22.30;52.76
41947;BME280;27638;42.184;24.848;2023-05-07T06:53:47;100150.50;;;22.65;53.11
41947;BME280;27638;42.184;24.848;2023-05-07T06:56:13;100150.63;;;22.70;52.13
41947;BME280;27638;42.184;24.848;2023-05-07T06:58:38;100143.41;;;22.82;51.62
41947;BME280;27638;42.184;24.848;2023-05-07T07:01:04;100146.66;;;23.02;50.14
41947;BME280;27638;42.184;24.848;2023-05-07T07:03:30;100146.78;;;23.19;49.81
41947;BME280;27638;42.184;24.848;2023-05-07T07:05:55;100142.66;;;23.28;49.14
41947;BME280;27638;42.184;24.848;2023-05-07T07:08:22;100149.22;;;23.44;47.39
41947;BME280;27638;42.184;24.848;2023-05-07T07:10:48;100153.00;;;23.54;48.18
41947;BME280;27638;42.184;24.848;2023-05-07T07:13:13;100156.16;;;23.75;47.68
41947;BME280;27638;42.184;24.848;2023-05-07T07:15:39;100143.91;;;23.96;46.12
41947;BME280;27638;42.184;24.848;2023-05-07T07:18:05;100154.59;;;23.91;47.85
41947;BME280;27638;42.184;24.848;2023-05-07T07:20:31;100141.63;;;24.04;47.67
41947;BME280;27638;42.184;24.848;2023-05-07T07:22:56;100151.88;;;23.91;47.19
41947;BME280;27638;42.184;24.848;2023-05-07T07:25:22;100152.47;;;24.04;47.73
41947;BME280;27638;42.184;24.848;2023-05-07T07:27:47;100155.16;;;24.04;47.42
41947;BME280;27638;42.184;24.848;2023-05-07T07:30:13;100150.50;;;24.28;49.92
41947;BME280;27638;42.184;24.848;2023-05-07T07:32:38;100140.09;;;24.08;49.05
41947;BME280;27638;42.184;24.848;2023-05-07T07:35:04;100156.28;;;24.32;49.25
41947;BME280;27638;42.184;24.848;2023-05-07T07:37:30;100147.44;;;23.84;48.96
41947;BME280;27638;42.184;24.848;2023-05-07T07:39:55;100151.78;;;23.97;49.67
41947;BME280;27638;42.184;24.848;2023-05-07T07:42:21;100157.34;;;24.19;50.32
41947;BME280;27638;42.184;24.848;2023-05-07T07:44:46;100156.44;;;24.13;48.99
41947;BME280;27638;42.184;24.848;2023-05-07T07:47:11;100157.19;;;24.37;47.54
41947;BME280;27638;42.184;24.848;2023-05-07T07:49:37;100155.75;;;24.63;47.71
41947;BME280;27638;42.184;24.848;2023-05-07T07:52:02;100148.31;;;24.87;46.86
41947;BME280;27638;42.184;24.848;2023-05-07T07:54:28;100150.53;;;24.90;46.21
41947;BME280;27638;42.184;24.848;2023-05-07T07:56:54;100156.22;;;24.43;47.31
41947;BME280;27638;42.184;24.848;2023-05-07T07:59:20;100164.72;;;24.80;47.24
41947;BME280;27638;42.184;24.848;2023-05-07T08:01:45;100168.84;;;24.38;47.55
41947;BME280;27638;42.184;24.848;2023-05-07T08:04:11;100154.50;;;24.54;46.56
41947;BME280;27638;42.184;24.848;2023-05-07T08:06:36;100170.06;;;24.92;46.19
41947;BME280;27638;42.184;24.848;2023-05-07T08:09:02;100163.38;;;24.49;47.95
41947;BME280;27638;42.184;24.848;2023-05-07T08:11:28;100156.19;;;24.72;45.65
41947;BME280;27638;42.184;24.848;2023-05-07T08:13:54;100153.47;;;24.89;44.84
41947;BME280;27638;42.184;24.848;2023-05-07T08:16:20;100149.28;;;24.81;46.24
41947;BME280;27638;42.184;24.848;2023-05-07T08:18:45;100150.59;;;24.95;45.64
41947;BME280;27638;42.184;24.848;2023-05-07T08:21:11;100143.50;;;25.23;43.58
41947;BME280;27638;42.184;24.848;2023-05-07T08:23:36;100139.56;;;25.13;40.57
41947;BME280;27638;42.184;24.848;2023-05-07T08:26:02;100136.41;;;25.38;42.79
41947;BME280;27638;42.184;24.848;2023-05-07T08:28:27;100125.59;;;25.60;42.70
41947;BME280;27638;42.184;24.848;2023-05-07T08:30:53;100135.91;;;25.41;43.22
41947;BME280;27638;42.184;24.848;2023-05-07T08:33:18;100127.09;;;25.51;42.30
41947;BME280;27638;42.184;24.848;2023-05-07T08:35:44;100129.00;;;25.51;40.71
41947;BME280;27638;42.184;24.848;2023-05-07T08:38:09;100127.22;;;25.61;42.63
41947;BME280;27638;42.184;24.848;2023-05-07T08:40:37;100124.72;;;25.55;43.72
41947;BME280;27638;42.184;24.848;2023-05-07T08:43:05;100131.72;;;25.51;39.10
41947;BME280;27638;42.184;24.848;2023-05-07T08:45:32;100121.91;;;25.28;36.63
41947;BME280;27638;42.184;24.848;2023-05-07T08:47:59;100120.66;;;25.35;38.03
41947;BME280;27638;42.184;24.848;2023-05-07T08:50:26;100128.50;;;25.15;41.43
41947;BME280;27638;42.184;24.848;2023-05-07T08:52:52;100125.13;;;25.08;42.64
41947;BME280;27638;42.184;24.848;2023-05-07T08:55:18;100123.69;;;24.72;42.53
41947;BME280;27638;42.184;24.848;2023-05-07T08:57:44;100124.41;;;24.50;42.03
41947;BME280;27638;42.184;24.848;2023-05-07T09:00:10;100122.81;;;24.38;37.58
41947;BME280;27638;42.184;24.848;2023-05-07T09:02:36;100120.78;;;24.45;39.96
41947;BME280;27638;42.184;24.848;2023-05-07T09:05:02;100120.47;;;24.58;37.63
41947;BME280;27638;42.184;24.848;2023-05-07T09:07:28;100116.22;;;24.62;37.97
41947;BME280;27638;42.184;24.848;2023-05-07T09:09:53;100121.19;;;24.25;40.15
41947;BME280;27638;42.184;24.848;2023-05-07T09:12:21;100121.75;;;23.23;41.30
41947;BME280;27638;42.184;24.848;2023-05-07T09:14:46;100113.38;;;23.72;40.04
41947;BME280;27638;42.184;24.848;2023-05-07T09:17:12;100115.47;;;23.81;38.78
41947;BME280;27638;42.184;24.848;2023-05-07T09:19:38;100110.97;;;23.87;40.92
41947;BME280;27638;42.184;24.848;2023-05-07T09:22:05;100099.59;;;23.73;41.30
41947;BME280;27638;42.184;24.848;2023-05-07T09:24:32;100099.81;;;23.95;40.12
41947;BME280;27638;42.184;24.848;2023-05-07T09:27:03;100104.44;;;24.11;43.53
41947;BME280;27638;42.184;24.848;2023-05-07T09:29:29;100101.34;;;24.19;41.82
41947;BME280;27638;42.184;24.848;2023-05-07T09:32:00;100098.03;;;24.29;41.95
41947;BME280;27638;42.184;24.848;2023-05-07T09:34:26;100092.81;;;24.39;42.08
41947;BME280;27638;42.184;24.848;2023-05-07T09:36:53;100096.28;;;23.83;42.12
41947;BME280;27638;42.184;24.848;2023-05-07T09:39:19;100092.59;;;23.61;41.11
41947;BME280;27638;42.184;24.848;2023-05-07T09:41:45;100091.75;;;23.72;39.00
41947;BME280;27638;42.184;24.848;2023-05-07T09:44:12;100083.88;;;23.70;38.76
41947;BME280;27638;42.184;24.848;2023-05-07T09:46:39;100091.25;;;23.75;38.48
41947;BME280;27638;42.184;24.848;2023-05-07T09:49:07;100084.59;;;23.42;40.28
41947;BME280;27638;42.184;24.848;2023-05-07T09:51:49;100081.75;;;22.67;41.21
41947;BME280;27638;42.184;24.848;2023-05-07T09:54:15;100084.53;;;22.49;43.73
41947;BME280;27638;42.184;24.848;2023-05-07T09:56:43;100082.16;;;22.41;45.89
41947;BME280;27638;42.184;24.848;2023-05-07T09:59:11;100077.69;;;22.35;42.53
41947;BME280;27638;42.184;24.848;2023-05-07T10:01:38;100065.97;;;22.41;43.49
41947;BME280;27638;42.184;24.848;2023-05-07T10:04:05;100068.72;;;22.64;41.29
41947;BME280;27638;42.184;24.848;2023-05-07T10:06:34;100074.47;;;22.79;41.70
41947;BME280;27638;42.184;24.848;2023-05-07T10:09:00;100061.88;;;22.91;43.80
41947;BME280;27638;42.184;24.848;2023-05-07T10:11:26;100063.16;;;22.89;44.76
41947;BME280;27638;42.184;24.848;2023-05-07T10:13:52;100054.69;;;22.85;42.43
41947;BME280;27638;42.184;24.848;2023-05-07T10:16:18;100051.66;;;22.93;45.56
41947;BME280;27638;42.184;24.848;2023-05-07T10:18:44;100052.25;;;22.96;44.62
41947;BME280;27638;42.184;24.848;2023-05-07T10:21:16;100054.22;;;22.88;41.29
41947;BME280;27638;42.184;24.848;2023-05-07T10:23:45;100049.34;;;22.67;43.83
41947;BME280;27638;42.184;24.848;2023-05-07T10:26:11;100052.03;;;22.55;41.74
41947;BME280;27638;42.184;24.848;2023-05-07T10:28:39;100043.84;;;22.62;43.67
41947;BME280;27638;42.184;24.848;2023-05-07T10:33:36;100049.97;;;22.16;42.76
41947;BME280;27638;42.184;24.848;2023-05-07T10:36:02;100040.38;;;22.20;44.93
41947;BME280;27638;42.184;24.848;2023-05-07T10:38:29;100044.38;;;22.29;45.08
41947;BME280;27638;42.184;24.848;2023-05-07T10:40:55;100032.44;;;22.48;42.22
41947;BME280;27638;42.184;24.848;2023-05-07T10:43:21;100031.50;;;22.54;42.53
41947;BME280;27638;42.184;24.848;2023-05-07T10:46:14;100021.41;;;22.61;41.07
41947;BME280;27638;42.184;24.848;2023-05-07T10:51:31;100017.91;;;22.73;40.53
41947;BME280;27638;42.184;24.848;2023-05-07T10:56:39;100012.19;;;22.81;39.32
41947;BME280;27638;42.184;24.848;2023-05-07T10:59:33;100013.13;;;22.86;40.12
41947;BME280;27638;42.184;24.848;2023-05-07T11:02:03;100008.75;;;22.74;42.46
41947;BME280;27638;42.184;24.848;2023-05-07T11:04:31;100008.97;;;22.60;42.89
41947;BME280;27638;42.184;24.848;2023-05-07T11:15:06;100004.75;;;22.41;40.85
41947;BME280;27638;42.184;24.848;2023-05-07T11:17:32;100002.41;;;22.56;39.93
41947;BME280;27638;42.184;24.848;2023-05-07T11:20:01;100003.00;;;22.47;39.16
41947;BME280;27638;42.184;24.848;2023-05-07T11:25:02;99999.13;;;22.43;40.66
41947;BME280;27638;42.184;24.848;2023-05-07T11:27:29;99992.91;;;22.66;39.98
41947;BME280;27638;42.184;24.848;2023-05-07T11:29:54;99981.06;;;22.67;42.03
41947;BME280;27638;42.184;24.848;2023-05-07T11:32:28;100000.31;;;22.58;42.46
41947;BME280;27638;42.184;24.848;2023-05-07T11:34:56;99987.50;;;22.66;42.17
41947;BME280;27638;42.184;24.848;2023-05-07T11:37:22;99988.56;;;22.76;42.22
41947;BME280;27638;42.184;24.848;2023-05-07T11:39:48;99983.53;;;22.80;40.52
41947;BME280;27638;42.184;24.848;2023-05-07T11:42:31;99986.00;;;22.81;41.63
41947;BME280;27638;42.184;24.848;2023-05-07T11:44:58;99972.84;;;22.85;41.61
41947;BME280;27638;42.184;24.848;2023-05-07T11:47:23;99996.13;;;22.98;42.01
41947;BME280;27638;42.184;24.848;2023-05-07T11:49:51;99986.59;;;22.83;43.36
41947;BME280;27638;42.184;24.848;2023-05-07T11:52:18;99989.19;;;23.02;39.92
41947;BME280;27638;42.184;24.848;2023-05-07T11:55:04;99985.44;;;23.03;39.67
41947;BME280;27638;42.184;24.848;2023-05-07T11:57:29;99987.38;;;22.72;40.81
41947;BME280;27638;42.184;24.848;2023-05-07T12:02:21;99981.06;;;22.67;41.21
41947;BME280;27638;42.184;24.848;2023-05-07T12:04:47;99973.78;;;22.79;42.20
41947;BME280;27638;42.184;24.848;2023-05-07T12:07:16;99962.41;;;22.65;41.84
41947;BME280;27638;42.184;24.848;2023-05-07T12:09:42;99976.00;;;22.70;40.88
41947;BME280;27638;42.184;24.848;2023-05-07T12:12:08;99970.03;;;22.80;43.12
41947;BME280;27638;42.184;24.848;2023-05-07T12:14:41;99970.03;;;22.80;40.68
41947;BME280;27638;42.184;24.848;2023-05-07T12:17:08;99980.47;;;22.65;39.48
41947;BME280;27638;42.184;24.848;2023-05-07T12:19:35;99966.28;;;22.46;41.99
41947;BME280;27638;42.184;24.848;2023-05-07T12:22:02;99962.03;;;22.38;39.46
41947;BME280;27638;42.184;24.848;2023-05-07T12:24:28;99954.41;;;22.47;43.49
41947;BME280;27638;42.184;24.848;2023-05-07T12:26:53;99959.22;;;22.56;43.08
41947;BME280;27638;42.184;24.848;2023-05-07T12:29:22;99949.00;;;22.70;42.13
41947;BME280;27638;42.184;24.848;2023-05-07T12:31:50;99954.41;;;22.58;39.94
41947;BME280;27638;42.184;24.848;2023-05-07T12:34:15;99950.44;;;22.49;41.80
41947;BME280;27638;42.184;24.848;2023-05-07T12:36:41;99957.25;;;22.52;42.50
41947;BME280;27638;42.184;24.848;2023-05-07T12:39:08;99948.91;;;22.65;41.13
41947;BME280;27638;42.184;24.848;2023-05-07T12:41:55;99943.63;;;22.58;40.39
41947;BME280;27638;42.184;24.848;2023-05-07T12:44:25;99946.09;;;22.60;40.50
41947;BME280;27638;42.184;24.848;2023-05-07T12:46:53;99939.50;;;22.68;39.42
41947;BME280;27638;42.184;24.848;2023-05-07T12:49:19;99946.78;;;22.67;40.66
41947;BME280;27638;42.184;24.848;2023-05-07T12:51:47;99956.75;;;22.78;40.80
41947;BME280;27638;42.184;24.848;2023-05-07T12:54:14;99934.25;;;22.61;39.48
41947;BME280;27638;42.184;24.848;2023-05-07T12:56:39;99936.25;;;22.54;38.05